sensor_id;sensor_type;location;lat;lon;timestamp;P1;durP1;ratioP1;P2;durP2;ratioP2
52888;SDS011;41413;52.770;6.892;2023-07-29T00:01:31;77.35;;;73.40;;
52888;SDS011;41413;52.770;6.892;2023-07-29T00:03:58;93.18;;;88.78;;
52888;SDS011;41413;52.770;6.892;2023-07-29T00:06:26;109.85;;;104.55;;
52888;SDS011;41413;52.770;6.892;2023-07-29T00:08:53;107.28;;;102.22;;
52888;SDS011;41413;52.770;6.892;2023-07-29T00:11:20;119.53;;;114.07;;
52888;SDS011;41413;52.770;6.892;2023-07-29T00:13:46;106.93;;;101.72;;
52888;SDS011;41413;52.770;6.892;2023-07-29T00:16:13;111.68;;;106.57;;
52888;SDS011;41413;52.770;6.892;2023-07-29T00:18:41;95.75;;;91.25;;
52888;SDS011;41413;52.770;6.892;2023-07-29T00:21:08;93.93;;;89.45;;
52888;SDS011;41413;52.770;6.892;2023-07-29T00:23:35;86.35;;;81.95;;
52888;SDS011;41413;52.770;6.892;2023-07-29T00:26:02;87.05;;;82.78;;
52888;SDS011;41413;52.770;6.892;2023-07-29T00:28:29;105.22;;;100.15;;
52888;SDS011;41413;52.770;6.892;2023-07-29T00:30:56;84.40;;;80.28;;
52888;SDS011;41413;52.770;6.892;2023-07-29T00:33:22;87.93;;;83.07;;
52888;SDS011;41413;52.770;6.892;2023-07-29T00:35:49;101.20;;;96.28;;
52888;SDS011;41413;52.770;6.892;2023-07-29T00:38:16;104.82;;;99.50;;
52888;SDS011;41413;52.770;6.892;2023-07-29T00:40:43;97.75;;;93.28;;
52888;SDS011;41413;52.770;6.892;2023-07-29T00:43:10;115.00;;;109.53;;
52888;SDS011;41413;52.770;6.892;2023-07-29T00:45:36;124.28;;;118.43;;
52888;SDS011;41413;52.770;6.892;2023-07-29T00:48:04;102.13;;;97.28;;
52888;SDS011;41413;52.770;6.892;2023-07-29T00:50:31;99.00;;;94.07;;
52888;SDS011;41413;52.770;6.892;2023-07-29T00:52:59;84.68;;;80.60;;
52888;SDS011;41413;52.770;6.892;2023-07-29T00:55:25;105.25;;;100.32;;
52888;SDS011;41413;52.770;6.892;2023-07-29T00:57:52;103.47;;;98.13;;
52888;SDS011;41413;52.770;6.892;2023-07-29T01:00:21;98.70;;;94.13;;
52888;SDS011;41413;52.770;6.892;2023-07-29T01:02:48;93.85;;;89.47;;
52888;SDS011;41413;52.770;6.892;2023-07-29T01:05:15;101.53;;;96.78;;
52888;SDS011;41413;52.770;6.892;2023-07-29T01:13:13;90.85;;;86.20;;
52888;SDS011;41413;52.770;6.892;2023-07-29T01:15:54;99.38;;;94.82;;
52888;SDS011;41413;52.770;6.892;2023-07-29T01:18:28;114.63;;;109.20;;
52888;SDS011;41413;52.770;6.892;2023-07-29T01:21:03;131.15;;;125.18;;
52888;SDS011;41413;52.770;6.892;2023-07-29T01:23:30;97.43;;;92.90;;
52888;SDS011;41413;52.770;6.892;2023-07-29T01:25:58;89.85;;;85.75;;
52888;SDS011;41413;52.770;6.892;2023-07-29T01:28:25;115.13;;;109.80;;
52888;SDS011;41413;52.770;6.892;2023-07-29T01:34:15;96.32;;;91.90;;
52888;SDS011;41413;52.770;6.892;2023-07-29T01:36:49;135.77;;;129.90;;
52888;SDS011;41413;52.770;6.892;2023-07-29T01:39:17;110.35;;;105.22;;
52888;SDS011;41413;52.770;6.892;2023-07-29T01:41:48;105.70;;;100.80;;
52888;SDS011;41413;52.770;6.892;2023-07-29T01:44:17;116.47;;;110.97;;
52888;SDS011;41413;52.770;6.892;2023-07-29T01:46:45;85.38;;;81.38;;
52888;SDS011;41413;52.770;6.892;2023-07-29T01:49:13;123.00;;;117.20;;
52888;SDS011;41413;52.770;6.892;2023-07-29T01:51:39;110.68;;;105.70;;
52888;SDS011;41413;52.770;6.892;2023-07-29T01:54:06;102.93;;;98.22;;
52888;SDS011;41413;52.770;6.892;2023-07-29T01:56:33;99.20;;;94.60;;
52888;SDS011;41413;52.770;6.892;2023-07-29T01:59:00;87.18;;;82.93;;
52888;SDS011;41413;52.770;6.892;2023-07-29T02:01:27;132.68;;;126.53;;
52888;SDS011;41413;52.770;6.892;2023-07-29T02:03:53;102.22;;;97.28;;
52888;SDS011;41413;52.770;6.892;2023-07-29T02:06:23;111.07;;;106.03;;
52888;SDS011;41413;52.770;6.892;2023-07-29T02:08:50;89.38;;;85.07;;
52888;SDS011;41413;52.770;6.892;2023-07-29T02:11:17;96.03;;;91.65;;
52888;SDS011;41413;52.770;6.892;2023-07-29T02:13:46;115.47;;;110.20;;
52888;SDS011;41413;52.770;6.892;2023-07-29T02:16:13;93.50;;;89.30;;
52888;SDS011;41413;52.770;6.892;2023-07-29T02:18:40;113.25;;;108.28;;
52888;SDS011;41413;52.770;6.892;2023-07-29T02:21:06;114.55;;;109.38;;
52888;SDS011;41413;52.770;6.892;2023-07-29T02:23:33;105.15;;;100.15;;
52888;SDS011;41413;52.770;6.892;2023-07-29T02:26:00;103.18;;;98.65;;
52888;SDS011;41413;52.770;6.892;2023-07-29T02:28:27;115.97;;;110.78;;
52888;SDS011;41413;52.770;6.892;2023-07-29T02:31:11;83.53;;;79.82;;
52888;SDS011;41413;52.770;6.892;2023-07-29T02:33:43;112.60;;;107.60;;
52888;SDS011;41413;52.770;6.892;2023-07-29T02:36:11;86.45;;;82.45;;
52888;SDS011;41413;52.770;6.892;2023-07-29T02:38:39;105.68;;;100.55;;
52888;SDS011;41413;52.770;6.892;2023-07-29T02:41:07;125.13;;;119.30;;
52888;SDS011;41413;52.770;6.892;2023-07-29T02:43:35;117.20;;;111.93;;
52888;SDS011;41413;52.770;6.892;2023-07-29T02:46:02;108.00;;;103.30;;
52888;SDS011;41413;52.770;6.892;2023-07-29T02:48:29;115.38;;;110.15;;
52888;SDS011;41413;52.770;6.892;2023-07-29T02:50:56;112.18;;;107.22;;
52888;SDS011;41413;52.770;6.892;2023-07-29T02:53:23;99.22;;;94.93;;
52888;SDS011;41413;52.770;6.892;2023-07-29T02:55:50;91.13;;;86.93;;
52888;SDS011;41413;52.770;6.892;2023-07-29T02:58:16;96.32;;;92.13;;
52888;SDS011;41413;52.770;6.892;2023-07-29T03:00:43;101.78;;;97.13;;
52888;SDS011;41413;52.770;6.892;2023-07-29T03:03:10;107.80;;;103.03;;
52888;SDS011;41413;52.770;6.892;2023-07-29T03:05:37;98.70;;;94.13;;
52888;SDS011;41413;52.770;6.892;2023-07-29T03:08:04;113.10;;;108.05;;
52888;SDS011;41413;52.770;6.892;2023-07-29T03:10:31;94.20;;;89.95;;
52888;SDS011;41413;52.770;6.892;2023-07-29T03:12:57;128.80;;;123.18;;
52888;SDS011;41413;52.770;6.892;2023-07-29T03:15:25;98.50;;;94.15;;
52888;SDS011;41413;52.770;6.892;2023-07-29T03:17:52;99.85;;;95.15;;
52888;SDS011;41413;52.770;6.892;2023-07-29T03:20:19;99.68;;;95.38;;
52888;SDS011;41413;52.770;6.892;2023-07-29T03:22:46;99.80;;;95.38;;
52888;SDS011;41413;52.770;6.892;2023-07-29T03:25:13;121.13;;;115.75;;
52888;SDS011;41413;52.770;6.892;2023-07-29T03:27:40;100.47;;;95.97;;
52888;SDS011;41413;52.770;6.892;2023-07-29T03:30:06;118.55;;;113.43;;
52888;SDS011;41413;52.770;6.892;2023-07-29T03:32:33;115.85;;;110.82;;
52888;SDS011;41413;52.770;6.892;2023-07-29T03:35:00;98.82;;;94.45;;
52888;SDS011;41413;52.770;6.892;2023-07-29T03:37:27;104.43;;;99.85;;
52888;SDS011;41413;52.770;6.892;2023-07-29T03:39:54;128.60;;;123.07;;
52888;SDS011;41413;52.770;6.892;2023-07-29T03:42:20;96.13;;;91.90;;
52888;SDS011;41413;52.770;6.892;2023-07-29T03:44:47;107.90;;;103.13;;
52888;SDS011;41413;52.770;6.892;2023-07-29T03:47:14;103.13;;;98.63;;
52888;SDS011;41413;52.770;6.892;2023-07-29T03:49:41;105.07;;;100.63;;
52888;SDS011;41413;52.770;6.892;2023-07-29T03:52:07;112.60;;;107.70;;
52888;SDS011;41413;52.770;6.892;2023-07-29T03:54:34;103.13;;;98.80;;
52888;SDS011;41413;52.770;6.892;2023-07-29T03:57:01;105.32;;;100.63;;
52888;SDS011;41413;52.770;6.892;2023-07-29T03:59:28;126.97;;;121.63;;
52888;SDS011;41413;52.770;6.892;2023-07-29T04:01:55;103.63;;;99.30;;
52888;SDS011;41413;52.770;6.892;2023-07-29T04:04:22;92.95;;;88.93;;
52888;SDS011;41413;52.770;6.892;2023-07-29T04:06:49;107.18;;;102.57;;
52888;SDS011;41413;52.770;6.892;2023-07-29T04:09:16;105.53;;;101.00;;
52888;SDS011;41413;52.770;6.892;2023-07-29T04:11:42;109.68;;;105.05;;
52888;SDS011;41413;52.770;6.892;2023-07-29T04:14:09;111.45;;;106.75;;
52888;SDS011;41413;52.770;6.892;2023-07-29T04:16:36;94.75;;;90.68;;
52888;SDS011;41413;52.770;6.892;2023-07-29T04:19:03;108.40;;;103.70;;
52888;SDS011;41413;52.770;6.892;2023-07-29T04:21:30;111.45;;;106.72;;
52888;SDS011;41413;52.770;6.892;2023-07-29T04:23:56;105.20;;;100.75;;
52888;SDS011;41413;52.770;6.892;2023-07-29T04:26:23;100.90;;;96.63;;
52888;SDS011;41413;52.770;6.892;2023-07-29T04:28:50;99.53;;;95.28;;
52888;SDS011;41413;52.770;6.892;2023-07-29T04:31:16;103.93;;;99.57;;
52888;SDS011;41413;52.770;6.892;2023-07-29T04:33:43;119.03;;;114.18;;
52888;SDS011;41413;52.770;6.892;2023-07-29T04:36:10;102.00;;;97.72;;
52888;SDS011;41413;52.770;6.892;2023-07-29T04:38:37;117.88;;;112.97;;
52888;SDS011;41413;52.770;6.892;2023-07-29T04:41:03;121.32;;;115.97;;
52888;SDS011;41413;52.770;6.892;2023-07-29T04:43:33;109.78;;;105.30;;
52888;SDS011;41413;52.770;6.892;2023-07-29T04:45:59;98.70;;;94.70;;
52888;SDS011;41413;52.770;6.892;2023-07-29T04:48:26;118.38;;;113.38;;
52888;SDS011;41413;52.770;6.892;2023-07-29T04:50:53;114.55;;;109.88;;
52888;SDS011;41413;52.770;6.892;2023-07-29T04:53:20;108.28;;;103.65;;
52888;SDS011;41413;52.770;6.892;2023-07-29T04:55:47;97.95;;;94.05;;
52888;SDS011;41413;52.770;6.892;2023-07-29T04:58:13;100.13;;;95.85;;
52888;SDS011;41413;52.770;6.892;2023-07-29T05:00:40;116.47;;;111.75;;
52888;SDS011;41413;52.770;6.892;2023-07-29T05:03:07;110.43;;;105.95;;
52888;SDS011;41413;52.770;6.892;2023-07-29T05:05:34;102.60;;;98.47;;
52888;SDS011;41413;52.770;6.892;2023-07-29T05:08:01;100.05;;;96.15;;
52888;SDS011;41413;52.770;6.892;2023-07-29T05:10:27;106.95;;;102.60;;
52888;SDS011;41413;52.770;6.892;2023-07-29T05:12:54;114.55;;;109.72;;
52888;SDS011;41413;52.770;6.892;2023-07-29T05:15:21;130.35;;;124.75;;
52888;SDS011;41413;52.770;6.892;2023-07-29T05:17:48;104.97;;;100.75;;
52888;SDS011;41413;52.770;6.892;2023-07-29T05:20:15;104.93;;;100.65;;
52888;SDS011;41413;52.770;6.892;2023-07-29T05:22:41;109.65;;;105.07;;
52888;SDS011;41413;52.770;6.892;2023-07-29T05:25:08;106.85;;;102.20;;
52888;SDS011;41413;52.770;6.892;2023-07-29T05:27:35;95.15;;;91.10;;
52888;SDS011;41413;52.770;6.892;2023-07-29T05:30:02;101.07;;;96.88;;
52888;SDS011;41413;52.770;6.892;2023-07-29T05:32:29;99.68;;;95.65;;
52888;SDS011;41413;52.770;6.892;2023-07-29T05:34:56;109.97;;;105.32;;
52888;SDS011;41413;52.770;6.892;2023-07-29T05:37:22;117.88;;;112.97;;
52888;SDS011;41413;52.770;6.892;2023-07-29T05:39:49;94.30;;;90.43;;
52888;SDS011;41413;52.770;6.892;2023-07-29T05:42:16;103.95;;;99.60;;
52888;SDS011;41413;52.770;6.892;2023-07-29T05:44:42;112.50;;;107.78;;
52888;SDS011;41413;52.770;6.892;2023-07-29T05:47:09;102.25;;;98.00;;
52888;SDS011;41413;52.770;6.892;2023-07-29T05:49:36;89.13;;;85.25;;
52888;SDS011;41413;52.770;6.892;2023-07-29T05:52:03;95.32;;;91.15;;
52888;SDS011;41413;52.770;6.892;2023-07-29T05:54:30;113.82;;;109.07;;
52888;SDS011;41413;52.770;6.892;2023-07-29T05:56:56;98.43;;;94.05;;
52888;SDS011;41413;52.770;6.892;2023-07-29T05:59:23;99.90;;;95.72;;
52888;SDS011;41413;52.770;6.892;2023-07-29T06:01:50;101.15;;;96.28;;
52888;SDS011;41413;52.770;6.892;2023-07-29T06:04:17;100.63;;;96.13;;
52888;SDS011;41413;52.770;6.892;2023-07-29T06:06:43;96.35;;;92.13;;
52888;SDS011;41413;52.770;6.892;2023-07-29T06:09:10;101.57;;;97.05;;
52888;SDS011;41413;52.770;6.892;2023-07-29T06:11:37;104.97;;;99.93;;
52888;SDS011;41413;52.770;6.892;2023-07-29T06:14:04;102.32;;;98.00;;
52888;SDS011;41413;52.770;6.892;2023-07-29T06:16:30;87.60;;;83.78;;
52888;SDS011;41413;52.770;6.892;2023-07-29T06:18:57;101.47;;;96.90;;
52888;SDS011;41413;52.770;6.892;2023-07-29T06:21:24;86.60;;;82.80;;
52888;SDS011;41413;52.770;6.892;2023-07-29T06:23:51;103.13;;;98.28;;
52888;SDS011;41413;52.770;6.892;2023-07-29T06:26:17;101.57;;;97.15;;
52888;SDS011;41413;52.770;6.892;2023-07-29T06:28:44;89.43;;;85.50;;
52888;SDS011;41413;52.770;6.892;2023-07-29T06:31:11;83.30;;;79.57;;
52888;SDS011;41413;52.770;6.892;2023-07-29T06:33:38;91.57;;;87.63;;
52888;SDS011;41413;52.770;6.892;2023-07-29T06:36:04;94.97;;;90.97;;
52888;SDS011;41413;52.770;6.892;2023-07-29T06:38:31;90.25;;;86.15;;
52888;SDS011;41413;52.770;6.892;2023-07-29T06:40:58;89.22;;;85.38;;
52888;SDS011;41413;52.770;6.892;2023-07-29T06:43:25;80.13;;;76.45;;
52888;SDS011;41413;52.770;6.892;2023-07-29T06:45:51;88.15;;;84.10;;
52888;SDS011;41413;52.770;6.892;2023-07-29T06:48:18;106.32;;;101.55;;
52888;SDS011;41413;52.770;6.892;2023-07-29T06:50:46;87.45;;;83.53;;
52888;SDS011;41413;52.770;6.892;2023-07-29T06:53:13;95.13;;;90.80;;
52888;SDS011;41413;52.770;6.892;2023-07-29T06:55:39;91.40;;;87.13;;
52888;SDS011;41413;52.770;6.892;2023-07-29T06:58:06;102.38;;;97.60;;
52888;SDS011;41413;52.770;6.892;2023-07-29T07:00:33;84.97;;;81.22;;
52888;SDS011;41413;52.770;6.892;2023-07-29T07:03:00;98.90;;;93.88;;
52888;SDS011;41413;52.770;6.892;2023-07-29T07:05:27;102.25;;;97.75;;
52888;SDS011;41413;52.770;6.892;2023-07-29T07:07:54;91.30;;;87.32;;
52888;SDS011;41413;52.770;6.892;2023-07-29T07:10:20;80.15;;;76.13;;
52888;SDS011;41413;52.770;6.892;2023-07-29T07:12:47;93.68;;;89.70;;
52888;SDS011;41413;52.770;6.892;2023-07-29T07:15:14;111.30;;;106.05;;
52888;SDS011;41413;52.770;6.892;2023-07-29T07:17:41;104.07;;;99.60;;
52888;SDS011;41413;52.770;6.892;2023-07-29T07:20:08;82.40;;;78.55;;
52888;SDS011;41413;52.770;6.892;2023-07-29T07:22:34;159.68;;;152.93;;
52888;SDS011;41413;52.770;6.892;2023-07-29T07:25:01;78.72;;;75.15;;
52888;SDS011;41413;52.770;6.892;2023-07-29T07:27:28;109.90;;;104.97;;
52888;SDS011;41413;52.770;6.892;2023-07-29T07:29:55;84.90;;;81.40;;
52888;SDS011;41413;52.770;6.892;2023-07-29T07:32:22;101.60;;;97.03;;
52888;SDS011;41413;52.770;6.892;2023-07-29T07:34:48;82.22;;;78.55;;
52888;SDS011;41413;52.770;6.892;2023-07-29T07:37:15;105.93;;;101.38;;
52888;SDS011;41413;52.770;6.892;2023-07-29T07:39:42;130.88;;;125.20;;
52888;SDS011;41413;52.770;6.892;2023-07-29T07:42:09;84.65;;;80.85;;
52888;SDS011;41413;52.770;6.892;2023-07-29T07:44:36;96.05;;;91.97;;
52888;SDS011;41413;52.770;6.892;2023-07-29T07:47:02;103.47;;;98.93;;
52888;SDS011;41413;52.770;6.892;2023-07-29T07:49:30;106.40;;;101.47;;
52888;SDS011;41413;52.770;6.892;2023-07-29T07:51:57;86.20;;;81.97;;
52888;SDS011;41413;52.770;6.892;2023-07-29T07:54:24;87.45;;;83.50;;
52888;SDS011;41413;52.770;6.892;2023-07-29T07:56:50;87.93;;;84.28;;
52888;SDS011;41413;52.770;6.892;2023-07-29T07:59:17;71.88;;;68.63;;
52888;SDS011;41413;52.770;6.892;2023-07-29T08:01:44;87.35;;;83.78;;
52888;SDS011;41413;52.770;6.892;2023-07-29T08:04:11;107.40;;;102.78;;
52888;SDS011;41413;52.770;6.892;2023-07-29T08:06:37;83.65;;;79.93;;
52888;SDS011;41413;52.770;6.892;2023-07-29T08:09:05;66.28;;;63.40;;
52888;SDS011;41413;52.770;6.892;2023-07-29T08:11:31;59.05;;;55.70;;
52888;SDS011;41413;52.770;6.892;2023-07-29T08:13:58;77.70;;;74.30;;
52888;SDS011;41413;52.770;6.892;2023-07-29T08:16:25;73.38;;;70.28;;
52888;SDS011;41413;52.770;6.892;2023-07-29T08:18:52;84.15;;;80.63;;
52888;SDS011;41413;52.770;6.892;2023-07-29T08:21:19;106.40;;;102.03;;
52888;SDS011;41413;52.770;6.892;2023-07-29T08:23:46;66.75;;;64.05;;
52888;SDS011;41413;52.770;6.892;2023-07-29T08:26:12;94.13;;;90.22;;
52888;SDS011;41413;52.770;6.892;2023-07-29T08:28:39;77.30;;;74.10;;
52888;SDS011;41413;52.770;6.892;2023-07-29T08:31:06;84.53;;;81.03;;
52888;SDS011;41413;52.770;6.892;2023-07-29T08:33:34;87.88;;;84.15;;
52888;SDS011;41413;52.770;6.892;2023-07-29T08:36:01;86.07;;;82.63;;
52888;SDS011;41413;52.770;6.892;2023-07-29T08:38:28;60.88;;;58.42;;
52888;SDS011;41413;52.770;6.892;2023-07-29T08:40:59;104.97;;;100.53;;
52888;SDS011;41413;52.770;6.892;2023-07-29T08:49:06;62.88;;;60.13;;
52888;SDS011;41413;52.770;6.892;2023-07-29T08:51:33;55.38;;;53.15;;
52888;SDS011;41413;52.770;6.892;2023-07-29T08:54:01;50.38;;;48.42;;
52888;SDS011;41413;52.770;6.892;2023-07-29T08:56:28;51.58;;;49.58;;
52888;SDS011;41413;52.770;6.892;2023-07-29T08:58:56;48.38;;;46.47;;
52888;SDS011;41413;52.770;6.892;2023-07-29T09:01:23;57.42;;;54.83;;
52888;SDS011;41413;52.770;6.892;2023-07-29T09:03:50;43.90;;;41.63;;
52888;SDS011;41413;52.770;6.892;2023-07-29T09:06:17;50.10;;;48.05;;
52888;SDS011;41413;52.770;6.892;2023-07-29T09:08:45;50.92;;;48.70;;
52888;SDS011;41413;52.770;6.892;2023-07-29T09:11:15;47.00;;;44.65;;
52888;SDS011;41413;52.770;6.892;2023-07-29T09:13:43;35.90;;;34.42;;
52888;SDS011;41413;52.770;6.892;2023-07-29T09:16:10;38.83;;;37.03;;
52888;SDS011;41413;52.770;6.892;2023-07-29T09:18:37;32.47;;;30.90;;
52888;SDS011;41413;52.770;6.892;2023-07-29T09:21:04;35.58;;;33.83;;
52888;SDS011;41413;52.770;6.892;2023-07-29T09:23:40;34.70;;;33.15;;
52888;SDS011;41413;52.770;6.892;2023-07-29T09:26:08;32.70;;;31.30;;
52888;SDS011;41413;52.770;6.892;2023-07-29T09:28:38;32.63;;;30.95;;
52888;SDS011;41413;52.770;6.892;2023-07-29T09:31:06;33.47;;;32.17;;
52888;SDS011;41413;52.770;6.892;2023-07-29T09:33:44;33.00;;;31.38;;
52888;SDS011;41413;52.770;6.892;2023-07-29T09:36:11;35.92;;;34.47;;
52888;SDS011;41413;52.770;6.892;2023-07-29T09:38:38;36.28;;;34.80;;
52888;SDS011;41413;52.770;6.892;2023-07-29T09:41:05;37.85;;;35.85;;
52888;SDS011;41413;52.770;6.892;2023-07-29T09:43:33;37.40;;;35.78;;
52888;SDS011;41413;52.770;6.892;2023-07-29T09:46:04;38.25;;;36.65;;
52888;SDS011;41413;52.770;6.892;2023-07-29T09:48:33;36.85;;;35.13;;
52888;SDS011;41413;52.770;6.892;2023-07-29T09:51:10;32.53;;;31.08;;
52888;SDS011;41413;52.770;6.892;2023-07-29T09:53:45;39.30;;;37.70;;
52888;SDS011;41413;52.770;6.892;2023-07-29T09:56:14;40.67;;;38.97;;
52888;SDS011;41413;52.770;6.892;2023-07-29T09:58:42;39.22;;;37.38;;
52888;SDS011;41413;52.770;6.892;2023-07-29T10:01:12;41.78;;;39.92;;
52888;SDS011;41413;52.770;6.892;2023-07-29T10:03:40;31.27;;;29.92;;
52888;SDS011;41413;52.770;6.892;2023-07-29T10:06:07;34.60;;;33.22;;
52888;SDS011;41413;52.770;6.892;2023-07-29T10:08:34;33.53;;;32.20;;
52888;SDS011;41413;52.770;6.892;2023-07-29T10:11:01;39.50;;;38.00;;
52888;SDS011;41413;52.770;6.892;2023-07-29T10:13:28;38.22;;;36.63;;
52888;SDS011;41413;52.770;6.892;2023-07-29T10:15:55;34.15;;;32.30;;
52888;SDS011;41413;52.770;6.892;2023-07-29T10:18:23;40.05;;;38.25;;
52888;SDS011;41413;52.770;6.892;2023-07-29T10:20:51;36.03;;;34.60;;
52888;SDS011;41413;52.770;6.892;2023-07-29T10:23:19;35.60;;;34.25;;
52888;SDS011;41413;52.770;6.892;2023-07-29T10:25:55;32.60;;;31.38;;
52888;SDS011;41413;52.770;6.892;2023-07-29T10:28:30;35.10;;;33.60;;
52888;SDS011;41413;52.770;6.892;2023-07-29T10:30:58;35.67;;;34.05;;
52888;SDS011;41413;52.770;6.892;2023-07-29T10:33:25;34.15;;;32.58;;
52888;SDS011;41413;52.770;6.892;2023-07-29T10:35:53;29.38;;;28.25;;
52888;SDS011;41413;52.770;6.892;2023-07-29T10:38:21;31.83;;;30.38;;
52888;SDS011;41413;52.770;6.892;2023-07-29T10:43:18;35.47;;;33.97;;
52888;SDS011;41413;52.770;6.892;2023-07-29T10:45:53;36.50;;;35.08;;
52888;SDS011;41413;52.770;6.892;2023-07-29T10:48:40;28.42;;;27.13;;
52888;SDS011;41413;52.770;6.892;2023-07-29T10:54:11;26.83;;;25.60;;
52888;SDS011;41413;52.770;6.892;2023-07-29T10:56:43;31.00;;;29.58;;
52888;SDS011;41413;52.770;6.892;2023-07-29T11:01:50;32.00;;;30.58;;
52888;SDS011;41413;52.770;6.892;2023-07-29T11:17:32;33.83;;;32.47;;
52888;SDS011;41413;52.770;6.892;2023-07-29T11:20:03;33.45;;;32.00;;
52888;SDS011;41413;52.770;6.892;2023-07-29T11:22:30;36.72;;;35.22;;
52888;SDS011;41413;52.770;6.892;2023-07-29T11:24:59;39.70;;;38.10;;
52888;SDS011;41413;52.770;6.892;2023-07-29T11:27:26;38.15;;;36.55;;
52888;SDS011;41413;52.770;6.892;2023-07-29T11:30:12;31.05;;;29.83;;
52888;SDS011;41413;52.770;6.892;2023-07-29T11:32:40;27.35;;;26.05;;
52888;SDS011;41413;52.770;6.892;2023-07-29T11:35:14;26.63;;;25.50;;
52888;SDS011;41413;52.770;6.892;2023-07-29T11:37:44;32.05;;;30.30;;
52888;SDS011;41413;52.770;6.892;2023-07-29T11:40:16;32.33;;;30.65;;
52888;SDS011;41413;52.770;6.892;2023-07-29T11:42:45;35.35;;;33.78;;
52888;SDS011;41413;52.770;6.892;2023-07-29T11:45:13;33.63;;;32.13;;
52888;SDS011;41413;52.770;6.892;2023-07-29T11:47:43;32.60;;;30.92;;
52888;SDS011;41413;52.770;6.892;2023-07-29T11:50:11;34.75;;;33.13;;
52888;SDS011;41413;52.770;6.892;2023-07-29T11:52:42;33.25;;;31.77;;
52888;SDS011;41413;52.770;6.892;2023-07-29T11:55:11;33.05;;;31.65;;
52888;SDS011;41413;52.770;6.892;2023-07-29T11:57:39;32.58;;;31.08;;
52888;SDS011;41413;52.770;6.892;2023-07-29T12:00:08;35.42;;;33.90;;
52888;SDS011;41413;52.770;6.892;2023-07-29T12:02:39;34.10;;;32.55;;
52888;SDS011;41413;52.770;6.892;2023-07-29T12:05:08;39.25;;;37.65;;
52888;SDS011;41413;52.770;6.892;2023-07-29T12:07:38;40.40;;;38.78;;
52888;SDS011;41413;52.770;6.892;2023-07-29T12:10:05;34.80;;;33.33;;
52888;SDS011;41413;52.770;6.892;2023-07-29T12:12:33;39.85;;;38.05;;
52888;SDS011;41413;52.770;6.892;2023-07-29T12:15:03;41.40;;;39.53;;
52888;SDS011;41413;52.770;6.892;2023-07-29T12:17:31;32.22;;;30.55;;
52888;SDS011;41413;52.770;6.892;2023-07-29T12:20:03;30.55;;;29.05;;
52888;SDS011;41413;52.770;6.892;2023-07-29T12:22:35;35.60;;;34.15;;
52888;SDS011;41413;52.770;6.892;2023-07-29T12:25:02;32.00;;;30.50;;
52888;SDS011;41413;52.770;6.892;2023-07-29T12:27:30;27.90;;;26.52;;
52888;SDS011;41413;52.770;6.892;2023-07-29T12:29:57;27.67;;;26.35;;
52888;SDS011;41413;52.770;6.892;2023-07-29T12:32:29;28.02;;;26.73;;
52888;SDS011;41413;52.770;6.892;2023-07-29T12:34:56;26.40;;;25.20;;
52888;SDS011;41413;52.770;6.892;2023-07-29T12:37:30;27.40;;;26.13;;
52888;SDS011;41413;52.770;6.892;2023-07-29T12:39:58;29.42;;;27.88;;
52888;SDS011;41413;52.770;6.892;2023-07-29T12:42:25;26.20;;;25.10;;
52888;SDS011;41413;52.770;6.892;2023-07-29T12:44:52;27.45;;;26.25;;
52888;SDS011;41413;52.770;6.892;2023-07-29T12:47:19;24.52;;;23.42;;
52888;SDS011;41413;52.770;6.892;2023-07-29T12:49:45;25.73;;;24.50;;
52888;SDS011;41413;52.770;6.892;2023-07-29T12:52:12;27.00;;;25.67;;
52888;SDS011;41413;52.770;6.892;2023-07-29T12:54:39;22.83;;;21.83;;
52888;SDS011;41413;52.770;6.892;2023-07-29T12:57:07;25.52;;;24.23;;
52888;SDS011;41413;52.770;6.892;2023-07-29T12:59:34;23.13;;;21.95;;
52888;SDS011;41413;52.770;6.892;2023-07-29T13:02:01;21.48;;;20.48;;
52888;SDS011;41413;52.770;6.892;2023-07-29T13:04:29;20.30;;;19.33;;
52888;SDS011;41413;52.770;6.892;2023-07-29T13:06:56;21.88;;;20.67;;
52888;SDS011;41413;52.770;6.892;2023-07-29T13:09:22;22.98;;;22.00;;
52888;SDS011;41413;52.770;6.892;2023-07-29T13:11:49;24.40;;;23.13;;
52888;SDS011;41413;52.770;6.892;2023-07-29T13:14:16;24.05;;;22.95;;
52888;SDS011;41413;52.770;6.892;2023-07-29T13:16:43;23.52;;;22.13;;
52888;SDS011;41413;52.770;6.892;2023-07-29T13:19:10;23.52;;;22.52;;
52888;SDS011;41413;52.770;6.892;2023-07-29T13:21:36;27.70;;;26.48;;
52888;SDS011;41413;52.770;6.892;2023-07-29T13:24:03;34.05;;;32.25;;
52888;SDS011;41413;52.770;6.892;2023-07-29T13:26:30;32.70;;;31.33;;
52888;SDS011;41413;52.770;6.892;2023-07-29T13:28:57;39.92;;;38.33;;
52888;SDS011;41413;52.770;6.892;2023-07-29T13:31:24;44.72;;;42.92;;
52888;SDS011;41413;52.770;6.892;2023-07-29T13:33:51;45.28;;;43.30;;
52888;SDS011;41413;52.770;6.892;2023-07-29T13:36:17;35.15;;;33.65;;
52888;SDS011;41413;52.770;6.892;2023-07-29T13:38:44;31.90;;;30.48;;
52888;SDS011;41413;52.770;6.892;2023-07-29T13:41:11;29.40;;;28.17;;
52888;SDS011;41413;52.770;6.892;2023-07-29T13:43:38;32.08;;;30.83;;
52888;SDS011;41413;52.770;6.892;2023-07-29T13:46:04;26.15;;;25.05;;
52888;SDS011;41413;52.770;6.892;2023-07-29T13:48:31;30.45;;;29.05;;
52888;SDS011;41413;52.770;6.892;2023-07-29T13:50:59;29.25;;;28.05;;
52888;SDS011;41413;52.770;6.892;2023-07-29T13:53:26;29.80;;;28.40;;
52888;SDS011;41413;52.770;6.892;2023-07-29T13:55:52;31.80;;;30.60;;
52888;SDS011;41413;52.770;6.892;2023-07-29T13:58:19;21.05;;;19.85;;
52888;SDS011;41413;52.770;6.892;2023-07-29T14:00:46;25.08;;;24.05;;
52888;SDS011;41413;52.770;6.892;2023-07-29T14:03:13;21.25;;;20.40;;
52888;SDS011;41413;52.770;6.892;2023-07-29T14:05:39;22.05;;;21.08;;
52888;SDS011;41413;52.770;6.892;2023-07-29T14:08:06;25.48;;;24.33;;
52888;SDS011;41413;52.770;6.892;2023-07-29T14:10:33;21.85;;;20.98;;
52888;SDS011;41413;52.770;6.892;2023-07-29T14:12:59;27.23;;;26.13;;
52888;SDS011;41413;52.770;6.892;2023-07-29T14:15:26;22.50;;;21.60;;
52888;SDS011;41413;52.770;6.892;2023-07-29T14:17:54;23.38;;;22.42;;
52888;SDS011;41413;52.770;6.892;2023-07-29T14:20:21;24.10;;;23.20;;
52888;SDS011;41413;52.770;6.892;2023-07-29T14:22:48;24.98;;;23.75;;
52888;SDS011;41413;52.770;6.892;2023-07-29T14:25:15;25.77;;;24.50;;
52888;SDS011;41413;52.770;6.892;2023-07-29T14:27:42;28.83;;;27.63;;
52888;SDS011;41413;52.770;6.892;2023-07-29T14:30:09;24.83;;;23.75;;
52888;SDS011;41413;52.770;6.892;2023-07-29T14:32:36;31.38;;;30.10;;
52888;SDS011;41413;52.770;6.892;2023-07-29T14:35:03;29.95;;;28.65;;
52888;SDS011;41413;52.770;6.892;2023-07-29T14:37:30;34.00;;;32.55;;
52888;SDS011;41413;52.770;6.892;2023-07-29T14:39:58;37.40;;;35.53;;
52888;SDS011;41413;52.770;6.892;2023-07-29T14:42:25;32.97;;;31.33;;
52888;SDS011;41413;52.770;6.892;2023-07-29T14:44:52;39.58;;;37.88;;
52888;SDS011;41413;52.770;6.892;2023-07-29T14:47:19;40.05;;;38.33;;
52888;SDS011;41413;52.770;6.892;2023-07-29T14:49:46;35.55;;;32.88;;
52888;SDS011;41413;52.770;6.892;2023-07-29T14:52:13;40.17;;;38.70;;